Time;durP1;ratioP1;P1;durP2;ratioP2;P2;SDS_P1;SDS_P2;PMS_P1;PMS_P2;Temp;Humidity;BMP_temperature;BMP_pressure;BME280_temperature;BME280_humidity;BME280_pressure;Samples;Min_cycle;Max_cycle;Signal;HPM_P1;HPM_P2
2021/12/11 00:01:48;;;;;;;72.53;26.93;;;2.70;1.00;;;;;;5033434;28;20559;-56
2021/12/11 00:04:21;;;;;;;71.13;27.33;;;2.70;99.90;;;;;;5035819;28;20445;-56
2021/12/11 00:06:52;;;;;;;66.43;26.00;;;2.80;25.10;;;;;;5037603;28;20570;-56
2021/12/11 00:09:26;;;;;;;65.73;26.90;;;2.70;1.00;;;;;;5034725;28;20460;-57
2021/12/11 00:12:00;;;;;;;64.53;26.43;;;2.70;1.00;;;;;;5037149;28;20569;-56
2021/12/11 00:14:30;;;;;;;73.70;24.93;;;2.70;1.00;;;;;;5033283;28;20446;-57
2021/12/11 00:16:56;;;;;;;75.10;26.70;;;2.70;99.90;;;;;;5031564;28;20446;-56
2021/12/11 00:19:29;;;;;;;74.17;26.10;;;2.70;99.90;;;;;;5031235;28;20782;-56
2021/12/11 00:22:05;;;;;;;69.70;26.57;;;2.70;99.90;;;;;;5035706;28;20594;-56
2021/12/11 00:24:33;;;;;;;73.33;25.30;;;2.70;1.00;;;;;;5029709;28;20445;-56
2021/12/11 00:27:08;;;;;;;73.67;26.80;;;2.80;33.50;;;;;;5035145;28;20580;-56
2021/12/11 00:29:34;;;;;;;77.17;28.27;;;2.80;6.20;;;;;;5037614;28;20533;-56
2021/12/11 00:32:03;;;;;;;74.07;27.80;;;2.80;99.90;;;;;;5034628;28;20840;-56
2021/12/11 00:34:30;;;;;;;76.53;28.77;;;2.80;1.00;;;;;;5035318;28;20449;-56
2021/12/11 00:37:02;;;;;;;87.67;29.57;;;2.80;99.90;;;;;;5036049;28;20448;-57
2021/12/11 00:39:29;;;;;;;75.20;28.37;;;2.70;97.10;;;;;;5036129;28;20449;-56
2021/12/11 00:41:57;;;;;;;87.87;29.20;;;2.70;1.00;;;;;;5034536;28;20441;-56
2021/12/11 00:44:35;;;;;;;69.43;27.00;;;2.70;1.00;;;;;;5033906;28;20456;-56
2021/12/11 00:47:26;;;;;;;76.57;28.33;;;2.60;99.90;;;;;;5035147;28;21305;-56
2021/12/11 00:50:01;;;;;;;70.43;28.60;;;2.60;99.90;;;;;;5043563;28;21692;-56
2021/12/11 00:52:33;;;;;;;72.83;27.17;;;2.70;43.80;;;;;;5039891;28;20518;-56
2021/12/11 00:55:02;;;;;;;68.80;27.17;;;2.70;99.90;;;;;;5035281;28;20433;-56
2021/12/11 00:57:28;;;;;;;78.20;28.63;;;2.70;1.00;;;;;;5038787;28;20452;-56
2021/12/11 01:00:07;;;;;;;92.13;30.20;;;2.70;99.90;;;;;;5038086;28;20460;-56
2021/12/11 01:02:32;;;;;;;82.27;28.70;;;2.70;1.00;;;;;;5037440;28;20543;-56
2021/12/11 01:04:59;;;;;;;80.87;29.10;;;2.70;99.90;;;;;;5042526;28;20531;-57
2021/12/11 01:07:31;;;;;;;79.10;28.70;;;2.70;1.00;;;;;;5039509;28;23844;-56
2021/12/11 01:10:05;;;;;;;70.30;26.40;;;2.70;1.00;;;;;;5039299;28;20466;-56
2021/12/11 01:12:50;;;;;;;71.73;28.30;;;2.70;1.00;;;;;;5042902;28;20455;-56
2021/12/11 01:15:43;;;;;;;82.37;29.27;;;2.70;99.90;;;;;;5040763;28;20432;-56
2021/12/11 01:21:08;;;;;;;76.00;28.20;;;2.70;99.90;;;;;;5037879;28;20930;-56
2021/12/11 01:26:11;;;;;;;71.57;28.50;;;2.70;1.00;;;;;;5042894;28;21305;-56
2021/12/11 01:28:37;;;;;;;70.37;26.30;;;2.70;99.90;;;;;;5041450;28;20491;-57
2021/12/11 01:31:06;;;;;;;72.90;26.07;;;2.60;1.00;;;;;;5036045;28;20524;-56
2021/12/11 01:33:32;;;;;;;73.23;28.37;;;2.70;1.00;;;;;;5037760;28;20516;-56
2021/12/11 01:35:59;;;;;;;75.13;27.13;;;2.60;99.90;;;;;;5035285;28;20476;-56
2021/12/11 01:38:28;;;;;;;90.13;26.50;;;2.60;1.00;;;;;;5036631;28;20484;-55
2021/12/11 01:40:57;;;;;;;86.30;30.83;;;2.60;70.30;;;;;;5035736;28;20453;-56
2021/12/11 01:43:26;;;;;;;83.87;29.87;;;2.50;48.10;;;;;;5037543;28;20532;-56
2021/12/11 01:45:53;;;;;;;74.87;29.30;;;2.50;1.00;;;;;;5041537;28;20781;-56
2021/12/11 01:48:24;;;;;;;76.23;28.40;;;2.50;1.00;;;;;;5037057;28;20485;-56
2021/12/11 01:50:55;;;;;;;80.43;27.97;;;2.50;1.00;;;;;;5036353;28;20480;-56
2021/12/11 01:53:30;;;;;;;72.80;28.87;;;2.50;99.90;;;;;;5039083;28;20445;-56
2021/12/11 01:56:12;;;;;;;74.93;29.10;;;2.50;41.50;;;;;;5037841;28;20998;-56
2021/12/11 01:58:50;;;;;;;82.50;30.87;;;2.50;1.40;;;;;;5037144;28;20443;-56
2021/12/11 02:01:27;;;;;;;78.73;28.50;;;2.50;99.90;;;;;;5038932;28;20445;-56
2021/12/11 02:03:54;;;;;;;87.43;29.27;;;2.50;1.00;;;;;;5039620;28;20516;-56
2021/12/11 02:06:20;;;;;;;85.63;29.80;;;2.50;1.00;;;;;;5041309;28;20460;-57
2021/12/11 02:08:46;;;;;;;85.80;30.30;;;2.50;1.00;;;;;;5036231;28;21119;-56
2021/12/11 02:11:20;;;;;;;84.00;30.20;;;2.50;99.90;;;;;;5034504;28;20667;-56
2021/12/11 02:13:56;;;;;;;73.50;28.43;;;2.50;1.00;;;;;;5038529;28;20573;-56
2021/12/11 02:16:34;;;;;;;81.90;29.47;;;2.50;99.90;;;;;;5043192;28;20766;-56
2021/12/11 02:19:10;;;;;;;87.13;30.90;;;2.40;1.00;;;;;;5038319;28;20943;-56
2021/12/11 02:21:51;;;;;;;81.67;29.80;;;2.40;99.90;;;;;;5036951;28;20567;-56
2021/12/11 02:24:22;;;;;;;80.87;29.67;;;2.40;1.00;;;;;;5039480;28;20457;-56
2021/12/11 02:26:49;;;;;;;75.07;27.53;;;2.40;99.90;;;;;;5039671;28;20474;-56
2021/12/11 02:29:24;;;;;;;71.10;28.70;;;2.40;1.00;;;;;;5043757;28;20874;-56
2021/12/11 02:32:07;;;;;;;78.80;29.70;;;2.30;99.90;;;;;;5036387;28;20449;-56
2021/12/11 02:34:35;;;;;;;71.03;25.97;;;2.40;1.00;;;;;;5040930;28;20448;-56
2021/12/11 02:37:17;;;;;;;69.47;27.40;;;2.40;99.90;;;;;;5039148;28;20440;-56
2021/12/11 02:39:51;;;;;;;79.37;28.00;;;2.40;99.90;;;;;;5051348;28;20625;-56
2021/12/11 02:42:20;;;;;;;73.73;27.50;;;2.40;99.90;;;;;;5046615;28;20807;-56
2021/12/11 02:45:03;;;;;;;68.40;25.67;;;2.40;1.00;;;;;;5037974;28;20930;-56
2021/12/11 02:47:33;;;;;;;68.07;27.60;;;2.40;48.70;;;;;;5037095;28;20978;-56
2021/12/11 02:50:20;;;;;;;79.67;28.57;;;2.40;99.90;;;;;;5035249;28;20472;-55
2021/12/11 02:52:49;;;;;;;79.60;26.90;;;2.40;99.90;;;;;;5036552;28;20458;-56
2021/12/11 02:55:32;;;;;;;79.97;29.47;;;2.40;99.90;;;;;;5043370;28;20444;-56
2021/12/11 02:58:03;;;;;;;70.67;27.93;;;2.40;99.90;;;;;;5038960;28;20437;-56
2021/12/11 03:00:34;;;;;;;77.80;27.30;;;2.40;1.00;;;;;;5037410;28;20449;-56
2021/12/11 03:03:05;;;;;;;81.80;30.10;;;2.50;86.10;;;;;;5047243;28;20424;-55
2021/12/11 03:05:43;;;;;;;84.90;30.07;;;2.40;1.00;;;;;;5037590;28;20452;-56
2021/12/11 03:08:13;;;;;;;68.30;27.50;;;2.40;99.90;;;;;;5034525;28;20505;-56
2021/12/11 03:10:40;;;;;;;67.60;26.37;;;2.40;1.00;;;;;;5043108;28;20471;-56
2021/12/11 03:13:07;;;;;;;89.13;30.90;;;2.40;1.00;;;;;;5040092;28;20464;-57
2021/12/11 03:15:33;;;;;;;76.73;29.33;;;2.50;1.00;;;;;;5040264;28;20441;-56
2021/12/11 03:18:00;;;;;;;76.70;28.27;;;2.60;1.00;;;;;;5041930;28;20445;-56
2021/12/11 03:20:26;;;;;;;80.37;28.80;;;2.60;99.90;;;;;;5038983;28;21057;-56
2021/12/11 03:22:52;;;;;;;71.00;26.70;;;2.60;99.90;;;;;;5047031;28;20538;-56
2021/12/11 03:25:23;;;;;;;75.47;28.40;;;2.50;99.90;;;;;;5043167;28;20535;-56
2021/12/11 03:27:48;;;;;;;83.73;28.73;;;2.50;1.00;;;;;;5037445;28;20461;-56
2021/12/11 03:30:22;;;;;;;74.13;27.07;;;2.50;99.90;;;;;;5046024;28;20494;-56
2021/12/11 03:32:55;;;;;;;82.70;31.10;;;2.50;99.90;;;;;;5037619;28;20196;-56
2021/12/11 03:35:22;;;;;;;77.80;27.70;;;2.60;99.90;;;;;;5034585;28;20537;-56
2021/12/11 03:37:47;;;;;;;77.50;28.60;;;2.50;1.00;;;;;;5040150;28;20450;-57
2021/12/11 03:40:14;;;;;;;84.07;29.50;;;2.50;1.00;;;;;;5042424;28;20445;-56
2021/12/11 03:42:42;;;;;;;79.40;28.03;;;2.50;66.70;;;;;;5041787;28;20218;-55
2021/12/11 03:45:13;;;;;;;76.40;28.67;;;2.40;99.90;;;;;;5044189;28;20536;-55
2021/12/11 03:47:48;;;;;;;72.80;26.87;;;2.40;55.20;;;;;;5042151;28;20488;-56
2021/12/11 03:50:16;;;;;;;72.00;26.57;;;2.40;1.00;;;;;;5042458;28;20848;-56
2021/12/11 03:52:44;;;;;;;79.60;26.40;;;2.30;1.00;;;;;;5041816;28;20836;-56
2021/12/11 03:55:12;;;;;;;74.90;26.10;;;2.30;1.00;;;;;;5037711;28;20436;-56
2021/12/11 03:57:38;;;;;;;70.67;27.27;;;2.30;99.90;;;;;;5039237;28;20448;-56
2021/12/11 04:00:10;;;;;;;81.03;28.30;;;2.30;99.90;;;;;;5043740;28;20450;-56
2021/12/11 04:02:36;;;;;;;75.20;27.27;;;2.20;99.90;;;;;;5035048;28;21333;-56
2021/12/11 04:05:07;;;;;;;74.43;26.50;;;2.20;1.00;;;;;;5041465;28;20455;-56
2021/12/11 04:07:41;;;;;;;74.67;26.40;;;2.20;19.70;;;;;;5041717;28;20462;-56
2021/12/11 04:10:09;;;;;;;68.40;27.13;;;2.20;99.90;;;;;;5037015;28;20467;-56
2021/12/11 04:12:35;;;;;;;68.83;29.10;;;2.10;45.50;;;;;;5033255;28;20529;-56
2021/12/11 04:15:01;;;;;;;61.90;25.53;;;2.10;99.90;;;;;;5046754;28;20574;-56
2021/12/11 04:17:28;;;;;;;77.70;27.23;;;2.10;99.90;;;;;;5038073;28;20203;-56
2021/12/11 04:19:58;;;;;;;69.13;26.63;;;2.10;99.90;;;;;;5044921;28;20440;-56
2021/12/11 04:22:26;;;;;;;70.07;26.47;;;2.10;37.50;;;;;;5050600;28;20444;-55
2021/12/11 04:24:52;;;;;;;78.40;27.53;;;2.10;1.00;;;;;;5049963;28;20461;-56
2021/12/11 04:27:19;;;;;;;68.07;27.13;;;2.10;1.00;;;;;;5046954;28;20973;-56
2021/12/11 04:29:49;;;;;;;85.53;28.03;;;2.10;1.00;;;;;;5044775;28;21036;-60
2021/12/11 04:32:15;;;;;;;76.93;29.77;;;2.00;99.90;;;;;;5042921;28;20591;-56
2021/12/11 04:34:41;;;;;;;75.93;28.30;;;2.00;1.00;;;;;;5042710;28;20443;-56
2021/12/11 04:37:17;;;;;;;81.50;28.20;;;2.00;99.90;;;;;;5049395;28;20464;-56
2021/12/11 04:39:53;;;;;;;69.43;25.43;;;2.00;99.90;;;;;;5051357;28;20583;-56
2021/12/11 04:44:53;;;;;;;73.87;25.43;;;2.10;1.00;;;;;;5036688;28;20441;-56
2021/12/11 04:47:47;;;;;;;73.03;26.90;;;2.10;1.00;;;;;;5037929;28;21337;-56
2021/12/11 04:50:47;;;;;;;78.27;28.07;;;2.10;99.90;;;;;;5042733;28;20473;-56
2021/12/11 05:02:05;;;;;;;79.73;26.17;;;2.20;1.00;;;;;;5046033;28;20849;-56
2021/12/11 05:04:46;;;;;;;79.63;29.87;;;2.20;1.00;;;;;;5052662;28;20463;-56
2021/12/11 05:10:02;;;;;;;67.10;26.77;;;2.30;99.90;;;;;;5045531;28;20571;-56
2021/12/11 05:12:35;;;;;;;77.50;28.97;;;2.40;99.90;;;;;;5050135;28;20447;-56
2021/12/11 05:15:04;;;;;;;82.23;28.03;;;2.50;99.90;;;;;;5048352;28;20437;-55
2021/12/11 05:17:30;;;;;;;76.77;28.10;;;2.40;1.00;;;;;;5036138;28;20445;-56
2021/12/11 05:19:55;;;;;;;64.97;26.57;;;2.30;51.70;;;;;;5045069;28;20449;-56
2021/12/11 05:22:22;;;;;;;71.23;27.20;;;2.30;99.90;;;;;;5038685;28;20457;-55
2021/12/11 05:24:51;;;;;;;73.13;24.97;;;2.30;1.00;;;;;;5042532;28;20198;-56
2021/12/11 05:27:17;;;;;;;71.07;27.00;;;2.20;19.70;;;;;;5047443;28;20464;-57
2021/12/11 05:29:43;;;;;;;75.10;27.90;;;2.30;1.00;;;;;;5048434;28;20799;-55
2021/12/11 05:32:14;;;;;;;70.83;26.10;;;2.30;99.90;;;;;;5046294;28;20450;-56
2021/12/11 05:34:41;;;;;;;74.37;28.47;;;2.20;99.90;;;;;;5047430;28;20428;-56
2021/12/11 05:37:06;;;;;;;79.50;28.10;;;2.20;99.90;;;;;;5045953;28;20521;-56
2021/12/11 05:39:32;;;;;;;73.83;27.53;;;2.20;1.00;;;;;;5053206;28;20523;-56
2021/12/11 05:41:58;;;;;;;85.33;27.30;;;2.10;1.00;;;;;;5047140;28;20213;-55
2021/12/11 05:44:24;;;;;;;76.40;27.67;;;2.10;64.10;;;;;;5045659;28;20216;-56
2021/12/11 05:46:52;;;;;;;75.27;25.60;;;2.10;1.00;;;;;;5046376;28;20259;-56
2021/12/11 05:49:18;;;;;;;78.33;26.77;;;2.00;1.00;;;;;;5033894;28;20441;-56
2021/12/11 05:51:48;;;;;;;65.23;25.37;;;2.00;99.90;;;;;;5041976;28;20488;-56
2021/12/11 05:54:21;;;;;;;82.20;26.27;;;2.00;94.80;;;;;;5036974;28;20453;-56
2021/12/11 05:56:48;;;;;;;68.47;24.67;;;1.90;1.00;;;;;;5040302;28;20568;-56
2021/12/11 05:59:17;;;;;;;68.23;25.70;;;1.80;31.70;;;;;;5044209;28;20449;-56
2021/12/11 06:01:50;;;;;;;67.87;25.63;;;1.80;1.00;;;;;;5038323;28;20437;-56
2021/12/11 06:04:26;;;;;;;66.83;25.43;;;1.80;99.90;;;;;;5038736;28;20506;-56
2021/12/11 06:06:54;;;;;;;66.00;23.87;;;1.80;99.90;;;;;;5042437;28;20983;-56
2021/12/11 06:09:22;;;;;;;69.80;26.90;;;1.80;99.90;;;;;;5043130;28;20576;-56
2021/12/11 06:11:51;;;;;;;66.13;25.33;;;1.60;99.90;;;;;;5038962;28;20512;-56
2021/12/11 06:14:18;;;;;;;59.47;23.50;;;1.70;1.00;;;;;;5043775;28;20484;-56
2021/12/11 06:16:49;;;;;;;72.73;25.33;;;1.70;99.90;;;;;;5047757;28;20472;-56
2021/12/11 06:19:19;;;;;;;60.63;24.90;;;1.60;99.90;;;;;;5045696;28;20476;-55
2021/12/11 06:21:45;;;;;;;69.57;24.70;;;1.60;99.90;;;;;;5045050;28;20438;-52
2021/12/11 06:24:11;;;;;;;67.10;23.40;;;1.60;99.90;;;;;;5043279;28;20449;-52
2021/12/11 06:26:37;;;;;;;58.50;24.27;;;1.60;1.00;;;;;;5043145;28;20457;-52
2021/12/11 06:29:03;;;;;;;68.90;24.93;;;1.40;1.00;;;;;;5045417;28;20972;-52
2021/12/11 06:31:29;;;;;;;73.83;27.33;;;1.50;1.00;;;;;;5042872;28;20485;-52
2021/12/11 06:33:55;;;;;;;59.17;24.47;;;1.40;99.90;;;;;;5037309;28;20193;-52
2021/12/11 06:36:23;;;;;;;65.37;24.77;;;1.40;1.00;;;;;;5033150;28;20660;-53
2021/12/11 06:38:52;;;;;;;59.50;23.50;;;1.40;1.00;;;;;;5037101;28;20452;-52
2021/12/11 06:41:22;;;;;;;68.57;24.60;;;1.40;99.90;;;;;;5038366;28;20465;-52
2021/12/11 06:43:49;;;;;;;67.70;24.70;;;1.40;99.90;;;;;;5037768;28;20474;-52
2021/12/11 06:46:15;;;;;;;74.37;24.83;;;1.30;1.00;;;;;;5036726;28;20544;-52
2021/12/11 06:48:41;;;;;;;81.67;26.70;;;1.20;69.40;;;;;;5042461;28;20500;-52
2021/12/11 06:51:07;;;;;;;69.23;24.90;;;1.20;99.90;;;;;;5040658;28;20958;-52
2021/12/11 06:53:42;;;;;;;68.23;23.90;;;1.10;99.90;;;;;;5046563;28;20273;-52
2021/12/11 06:56:11;;;;;;;70.17;24.50;;;1.10;1.00;;;;;;5046830;28;20448;-52
2021/12/11 06:58:37;;;;;;;74.50;24.57;;;1.20;1.00;;;;;;5045016;28;20450;-52
2021/12/11 07:01:05;;;;;;;62.27;24.83;;;1.20;1.00;;;;;;5047008;28;21225;-52
2021/12/11 07:03:31;;;;;;;62.37;24.33;;;1.30;1.00;;;;;;5041703;28;20289;-53
2021/12/11 07:05:57;;;;;;;56.63;22.87;;;1.30;1.00;;;;;;5050041;28;20439;-52
2021/12/11 07:08:23;;;;;;;62.10;24.73;;;1.20;1.00;;;;;;5040777;28;20476;-52
2021/12/11 07:10:49;;;;;;;66.20;23.67;;;1.10;1.00;;;;;;5040493;28;20209;-52
2021/12/11 07:13:15;;;;;;;63.90;22.80;;;1.10;1.00;;;;;;5044802;28;20455;-52
2021/12/11 07:15:42;;;;;;;65.33;24.77;;;1.00;1.00;;;;;;5045657;28;20201;-51
2021/12/11 07:18:08;;;;;;;69.53;24.20;;;1.00;1.00;;;;;;5037394;28;20473;-52
2021/12/11 07:20:33;;;;;;;63.73;23.47;;;0.90;1.00;;;;;;5043892;28;20880;-52
2021/12/11 07:23:00;;;;;;;66.33;23.83;;;0.90;1.00;;;;;;5038771;28;20460;-52
2021/12/11 07:25:32;;;;;;;66.80;23.17;;;0.90;1.00;;;;;;5045184;28;20197;-52
2021/12/11 07:28:03;;;;;;;56.30;23.30;;;0.90;1.00;;;;;;5037331;28;21276;-52
2021/12/11 07:30:31;;;;;;;62.23;22.50;;;0.90;1.00;;;;;;5039390;28;21060;-52
2021/12/11 07:32:59;;;;;;;64.13;24.33;;;1.00;66.70;;;;;;5042161;28;20511;-52
2021/12/11 07:35:25;;;;;;;69.83;22.97;;;1.10;1.00;;;;;;5046403;28;20508;-52
2021/12/11 07:37:51;;;;;;;64.47;22.63;;;1.20;99.90;;;;;;5046257;28;20543;-52
2021/12/11 07:40:19;;;;;;;59.37;22.17;;;1.20;99.90;;;;;;5045113;28;20198;-52
2021/12/11 07:42:46;;;;;;;63.77;21.10;;;1.30;99.90;;;;;;5042570;28;20441;-52
2021/12/11 07:45:12;;;;;;;64.20;24.37;;;1.30;99.90;;;;;;5046117;28;20449;-54
2021/12/11 07:47:37;;;;;;;63.73;23.77;;;1.40;99.90;;;;;;5035327;28;20622;-52
2021/12/11 07:50:05;;;;;;;64.00;21.33;;;1.40;1.00;;;;;;5034797;28;20485;-52
2021/12/11 07:52:30;;;;;;;64.77;22.30;;;1.50;99.90;;;;;;5045120;28;20201;-53
2021/12/11 07:54:56;;;;;;;59.17;23.40;;;1.60;99.90;;;;;;5038528;28;20445;-53
2021/12/11 07:57:22;;;;;;;62.17;22.47;;;1.60;1.00;;;;;;5043668;28;20190;-53
2021/12/11 07:59:48;;;;;;;60.17;22.93;;;1.60;99.90;;;;;;5035545;28;20181;-52
2021/12/11 08:02:14;;;;;;;55.67;20.67;;;1.70;99.90;;;;;;5042433;28;20448;-52
2021/12/11 08:04:39;;;;;;;61.23;22.90;;;1.80;99.90;;;;;;5048483;28;20276;-52
2021/12/11 08:07:05;;;;;;;59.90;22.53;;;1.90;99.90;;;;;;5044099;28;20809;-52
2021/12/11 08:09:30;;;;;;;50.73;20.77;;;1.90;94.80;;;;;;5046762;28;20641;-52
2021/12/11 08:11:56;;;;;;;50.30;20.37;;;1.90;99.90;;;;;;5048331;28;20221;-54
2021/12/11 08:14:22;;;;;;;52.23;21.50;;;2.00;99.90;;;;;;5046532;28;20291;-53
2021/12/11 08:16:52;;;;;;;56.63;22.83;;;2.00;99.90;;;;;;5044246;28;20280;-52
2021/12/11 08:19:21;;;;;;;45.60;19.50;;;2.10;1.00;;;;;;5044788;28;20650;-52
2021/12/11 08:21:50;;;;;;;56.53;20.13;;;2.10;1.00;;;;;;5038159;28;21248;-53
2021/12/11 08:24:16;;;;;;;51.90;21.03;;;2.10;1.00;;;;;;5054142;28;20439;-53
2021/12/11 08:26:43;;;;;;;47.33;19.80;;;2.10;1.00;;;;;;5043957;28;20523;-53
2021/12/11 08:29:12;;;;;;;56.10;20.87;;;2.20;99.90;;;;;;5050736;28;20451;-52
2021/12/11 08:31:40;;;;;;;58.77;22.47;;;2.10;1.00;;;;;;5041482;28;20465;-52
2021/12/11 08:34:06;;;;;;;46.27;19.67;;;2.20;1.00;;;;;;5047897;28;20521;-52
2021/12/11 08:36:32;;;;;;;51.63;20.47;;;2.20;70.00;;;;;;5048285;28;20501;-53
2021/12/11 08:38:59;;;;;;;50.07;19.93;;;2.20;1.00;;;;;;5045887;28;20448;-53
2021/12/11 08:41:29;;;;;;;48.67;20.73;;;2.20;99.90;;;;;;5046773;28;20446;-52
2021/12/11 08:44:03;;;;;;;51.07;20.77;;;2.30;1.00;;;;;;5039424;28;20580;-53
2021/12/11 08:46:31;;;;;;;54.20;20.63;;;2.30;1.00;;;;;;5038167;28;20488;-53
2021/12/11 08:49:01;;;;;;;47.63;20.70;;;2.20;99.90;;;;;;5035787;28;20492;-53
2021/12/11 08:51:38;;;;;;;53.27;21.27;;;2.30;99.90;;;;;;5036244;28;20571;-53
2021/12/11 08:54:04;;;;;;;46.77;20.33;;;2.40;99.90;;;;;;5049585;28;21205;-53
2021/12/11 08:56:30;;;;;;;46.50;20.17;;;2.30;1.00;;;;;;5044663;28;20442;-52
2021/12/11 08:58:56;;;;;;;45.33;19.27;;;2.30;1.00;;;;;;5041007;28;20446;-52
2021/12/11 09:01:41;;;;;;;52.93;21.43;;;2.40;99.90;;;;;;5048414;28;20244;-53
2021/12/11 09:04:17;;;;;;;60.50;19.87;;;2.30;1.00;;;;;;5035401;28;20236;-53
2021/12/11 09:06:53;;;;;;;48.73;20.37;;;2.30;99.90;;;;;;5042023;28;20460;-52
2021/12/11 09:09:27;;;;;;;47.33;19.00;;;2.30;96.20;;;;;;5042433;28;21243;-53
2021/12/11 09:12:06;;;;;;;52.50;19.63;;;2.30;7.80;;;;;;5040179;28;20468;-53
2021/12/11 09:14:44;;;;;;;50.50;19.47;;;2.40;99.90;;;;;;5043148;28;20582;-53
2021/12/11 09:17:27;;;;;;;50.73;20.20;;;2.40;1.00;;;;;;5042907;28;20537;-53
2021/12/11 09:20:00;;;;;;;51.57;20.47;;;2.40;1.00;;;;;;5042669;28;20503;-53
2021/12/11 09:22:30;;;;;;;43.87;20.30;;;2.50;1.00;;;;;;5047973;28;20483;-53
2021/12/11 09:25:23;;;;;;;46.93;19.33;;;2.50;99.90;;;;;;5041706;28;20472;-53
2021/12/11 09:27:53;;;;;;;55.47;20.60;;;2.60;1.00;;;;;;5036417;28;20452;-53
2021/12/11 09:30:34;;;;;;;49.63;19.40;;;2.60;99.90;;;;;;5043317;28;20457;-53
2021/12/11 09:33:06;;;;;;;45.90;20.40;;;2.70;1.00;;;;;;5048648;28;20493;-52
2021/12/11 09:35:37;;;;;;;55.17;19.40;;;2.70;99.90;;;;;;5044819;28;20531;-53
2021/12/11 09:38:08;;;;;;;52.80;21.47;;;2.80;1.00;;;;;;5049855;28;20683;-52
2021/12/11 09:40:37;;;;;;;53.00;21.37;;;2.80;99.90;;;;;;5053328;28;20440;-52
2021/12/11 09:43:03;;;;;;;48.03;20.30;;;2.90;99.90;;;;;;5045656;28;20591;-59
2021/12/11 09:45:33;;;;;;;48.33;19.57;;;3.00;1.00;;;;;;5046141;28;20531;-53
2021/12/11 09:48:10;;;;;;;50.83;20.77;;;3.10;99.90;;;;;;5040658;28;20499;-53
2021/12/11 09:50:48;;;;;;;51.47;20.37;;;3.10;99.90;;;;;;5046017;28;20997;-53
2021/12/11 09:53:16;;;;;;;54.30;20.30;;;3.10;1.00;;;;;;5037001;28;20437;-53
2021/12/11 09:55:43;;;;;;;50.23;21.30;;;3.20;1.00;;;;;;5032169;28;20470;-53
2021/12/11 09:58:13;;;;;;;40.63;19.17;;;3.10;1.00;;;;;;5040117;28;20435;-54
2021/12/11 10:00:55;;;;;;;44.97;18.97;;;3.10;1.00;;;;;;5045799;28;20490;-53
2021/12/11 10:03:25;;;;;;;42.50;19.20;;;3.20;99.90;;;;;;5040618;28;20458;-52
2021/12/11 10:06:00;;;;;;;41.20;18.80;;;3.20;99.90;;;;;;5046184;28;20914;-53
2021/12/11 10:08:36;;;;;;;43.00;20.00;;;3.20;1.00;;;;;;5048660;28;20433;-52
2021/12/11 10:11:01;;;;;;;41.40;19.63;;;3.20;99.90;;;;;;5044116;28;20461;-52
2021/12/11 10:13:28;;;;;;;44.80;20.07;;;3.20;99.90;;;;;;5047347;28;20537;-53
2021/12/11 10:15:54;;;;;;;44.40;20.00;;;3.30;1.00;;;;;;5043644;28;20199;-52
2021/12/11 10:18:24;;;;;;;41.80;17.60;;;3.30;1.00;;;;;;5044931;28;20480;-53
2021/12/11 10:20:55;;;;;;;43.20;20.30;;;3.40;45.40;;;;;;5039420;28;20438;-53
2021/12/11 10:23:27;;;;;;;40.30;18.10;;;3.40;1.00;;;;;;5038532;28;20455;-53
2021/12/11 10:25:54;;;;;;;43.00;18.93;;;3.40;56.40;;;;;;5033463;28;20820;-53
2021/12/11 10:28:23;;;;;;;39.77;18.40;;;3.40;96.00;;;;;;5036424;28;20493;-53
2021/12/11 10:31:02;;;;;;;47.50;19.60;;;3.40;99.90;;;;;;5040058;28;20464;-52
2021/12/11 10:33:31;;;;;;;37.83;18.40;;;3.40;99.90;;;;;;5043035;28;20458;-52
2021/12/11 10:36:00;;;;;;;38.57;19.00;;;3.50;1.00;;;;;;5040505;28;20442;-53
2021/12/11 10:38:27;;;;;;;48.10;19.30;;;3.50;1.00;;;;;;5048113;28;20440;-53
2021/12/11 10:40:59;;;;;;;44.60;19.23;;;3.50;99.90;;;;;;5044580;28;20547;-53
2021/12/11 10:43:59;;;;;;;42.37;19.77;;;3.50;99.90;;;;;;5050550;28;20444;-52
2021/12/11 10:46:31;;;;;;;39.00;18.37;;;3.60;1.00;;;;;;5030428;28;20437;-53
2021/12/11 10:48:59;;;;;;;36.53;17.70;;;3.70;1.00;;;;;;5031288;28;20481;-53
2021/12/11 10:51:32;;;;;;;36.60;17.67;;;3.70;99.90;;;;;;5038693;28;20471;-53
2021/12/11 10:53:59;;;;;;;45.03;17.70;;;3.70;99.90;;;;;;5039434;28;20776;-53
2021/12/11 10:56:27;;;;;;;35.93;17.90;;;3.70;1.00;;;;;;5036535;28;20923;-53
2021/12/11 10:58:57;;;;;;;42.43;17.77;;;3.70;99.90;;;;;;5044477;28;20421;-53
2021/12/11 11:01:28;;;;;;;37.03;17.80;;;3.60;1.00;;;;;;5041985;28;20461;-52
2021/12/11 11:03:59;;;;;;;42.13;18.07;;;3.60;1.00;;;;;;5038374;28;20496;-52
2021/12/11 11:06:25;;;;;;;39.50;16.70;;;3.60;99.90;;;;;;5045465;28;21033;-53
2021/12/11 11:08:51;;;;;;;39.70;17.90;;;3.60;1.00;;;;;;5030871;28;20433;-53
2021/12/11 11:11:21;;;;;;;33.50;17.10;;;3.60;99.90;;;;;;5032783;28;20924;-52
2021/12/11 11:13:47;;;;;;;40.60;19.50;;;3.60;1.00;;;;;;5030864;28;20410;-53
2021/12/11 11:16:15;;;;;;;34.00;18.00;;;3.60;1.00;;;;;;5044565;28;20417;-53
2021/12/11 11:18:41;;;;;;;44.80;19.10;;;3.60;1.00;;;;;;5031099;28;20428;-53
2021/12/11 11:21:11;;;;;;;38.50;17.63;;;3.60;99.90;;;;;;5038900;28;20801;-53
2021/12/11 11:23:38;;;;;;;38.50;17.50;;;3.60;99.90;;;;;;5037224;28;20178;-53
2021/12/11 11:26:09;;;;;;;39.73;18.07;;;3.70;99.90;;;;;;5030201;28;20490;-53
2021/12/11 11:28:36;;;;;;;44.23;17.27;;;3.70;1.00;;;;;;5044008;28;20452;-53
2021/12/11 11:31:11;;;;;;;36.27;17.87;;;3.80;99.90;;;;;;5049235;28;20465;-53
2021/12/11 11:33:39;;;;;;;32.37;16.50;;;3.80;1.00;;;;;;5047641;28;20493;-52
2021/12/11 11:36:08;;;;;;;35.53;17.07;;;3.90;1.00;;;;;;5037921;28;20432;-53
2021/12/11 11:38:38;;;;;;;38.10;18.63;;;3.90;1.00;;;;;;5031686;28;20429;-53
2021/12/11 11:41:09;;;;;;;40.00;18.90;;;4.00;1.00;;;;;;5038659;28;20915;-53
2021/12/11 11:43:36;;;;;;;30.33;17.03;;;4.00;1.00;;;;;;5049726;28;20420;-53
2021/12/11 11:46:03;;;;;;;31.20;17.10;;;4.10;99.90;;;;;;5042017;28;20560;-53
2021/12/11 11:48:33;;;;;;;35.73;17.60;;;4.30;1.00;;;;;;5043275;28;20484;-53
2021/12/11 11:51:04;;;;;;;34.00;16.83;;;4.40;1.00;;;;;;5040923;28;20467;-53
2021/12/11 11:53:30;;;;;;;35.23;18.20;;;4.50;72.50;;;;;;5046742;28;20439;-53
2021/12/11 11:56:01;;;;;;;32.27;16.97;;;4.50;99.90;;;;;;5038476;28;20449;-54
2021/12/11 11:58:29;;;;;;;31.40;16.37;;;4.50;1.00;;;;;;5043457;28;20189;-54
2021/12/11 12:00:59;;;;;;;36.17;16.20;;;4.60;99.90;;;;;;5045199;28;20460;-55
2021/12/11 12:03:28;;;;;;;31.30;15.67;;;4.60;99.90;;;;;;5042321;28;20512;-55
2021/12/11 12:05:58;;;;;;;32.00;16.50;;;4.70;1.00;;;;;;5037978;28;20441;-54
2021/12/11 12:08:24;;;;;;;33.93;16.30;;;4.90;99.90;;;;;;5043117;28;20545;-55
2021/12/11 12:10:52;;;;;;;30.20;15.23;;;4.90;1.00;;;;;;5032387;28;21034;-55
2021/12/11 12:13:23;;;;;;;28.00;14.87;;;4.90;1.00;;;;;;5042230;28;20202;-55
2021/12/11 12:15:51;;;;;;;32.13;15.63;;;4.80;26.70;;;;;;5045372;28;20433;-55
2021/12/11 12:18:19;;;;;;;33.13;17.13;;;4.80;99.90;;;;;;5041463;28;20791;-55
2021/12/11 12:20:47;;;;;;;31.37;15.73;;;4.80;99.90;;;;;;5035261;28;20448;-54
2021/12/11 12:23:13;;;;;;;30.27;16.63;;;4.90;1.00;;;;;;5041080;28;20444;-55
2021/12/11 12:25:41;;;;;;;30.30;15.30;;;4.90;99.90;;;;;;5044409;28;20941;-54
2021/12/11 12:28:07;;;;;;;27.43;14.70;;;4.90;99.90;;;;;;5050988;28;20453;-55
2021/12/11 12:30:40;;;;;;;30.13;15.00;;;4.80;99.90;;;;;;5041831;28;20559;-55
2021/12/11 12:33:07;;;;;;;29.10;14.20;;;4.80;99.90;;;;;;5041484;28;20186;-55
2021/12/11 12:35:34;;;;;;;37.70;16.10;;;4.70;99.90;;;;;;5040166;28;20915;-53
2021/12/11 12:38:03;;;;;;;30.93;15.37;;;4.70;1.00;;;;;;5040662;28;20820;-53
2021/12/11 12:40:37;;;;;;;31.13;15.20;;;4.70;1.00;;;;;;5042225;28;20453;-53
2021/12/11 12:43:12;;;;;;;30.97;14.47;;;4.70;99.90;;;;;;5035087;28;20513;-53
2021/12/11 12:45:46;;;;;;;30.40;15.33;;;4.60;1.00;;;;;;5044634;28;20445;-53
2021/12/11 12:48:20;;;;;;;29.97;14.83;;;4.60;99.90;;;;;;5047067;28;20841;-53
2021/12/11 12:50:54;;;;;;;28.10;14.17;;;4.60;12.00;;;;;;5040801;28;20476;-55
2021/12/11 12:53:22;;;;;;;28.30;13.80;;;4.70;99.90;;;;;;5041001;28;21006;-53
2021/12/11 12:55:54;;;;;;;26.60;13.40;;;4.70;99.90;;;;;;5052374;28;20442;-53
2021/12/11 12:58:30;;;;;;;29.37;14.17;;;4.70;1.00;;;;;;5040836;28;20526;-53
2021/12/11 13:01:12;;;;;;;25.57;14.50;;;4.70;1.00;;;;;;5039175;28;20516;-53
2021/12/11 13:03:40;;;;;;;25.70;13.23;;;4.70;1.00;;;;;;5034733;28;20441;-53
2021/12/11 13:06:12;;;;;;;28.40;14.57;;;4.80;99.90;;;;;;5038361;28;20531;-53
2021/12/11 13:08:48;;;;;;;27.07;14.00;;;4.80;48.00;;;;;;5039507;28;20441;-53
2021/12/11 13:11:26;;;;;;;22.70;11.63;;;4.70;99.90;;;;;;5038563;28;20555;-53
2021/12/11 13:13:54;;;;;;;21.60;12.17;;;4.80;99.90;;;;;;5039761;28;20535;-53
2021/12/11 13:16:23;;;;;;;22.60;13.20;;;4.80;99.90;;;;;;5051642;28;20478;-53